Time;durP1;ratioP1;P1;durP2;ratioP2;P2;SDS_P1;SDS_P2;PMS_P1;PMS_P2;Temp;Humidity;BMP_temperature;BMP_pressure;BME280_temperature;BME280_humidity;BME280_pressure;Samples;Min_cycle;Max_cycle;Signal;HPM_P1;HPM_P2
2023/10/27 00:00:41;;;;;;;12.93;3.37;;;;;;;11.06;100.00;98983.50;5021435;28;20436;-68
2023/10/27 00:03:07;;;;;;;6.67;2.90;;;;;;;11.05;100.00;98978.44;5021456;28;20535;-69
2023/10/27 00:05:34;;;;;;;7.03;2.80;;;;;;;11.02;100.00;98976.41;5021201;28;20460;-69
2023/10/27 00:08:01;;;;;;;5.83;2.47;;;;;;;11.03;100.00;98978.78;5021255;28;20515;-69
2023/10/27 00:10:29;;;;;;;7.83;3.83;;;;;;;10.99;100.00;98977.88;5020813;28;20571;-69
2023/10/27 00:12:56;;;;;;;6.80;2.90;;;;;;;10.99;100.00;98966.25;5019695;28;20436;-68
2023/10/27 00:15:23;;;;;;;5.27;2.37;;;;;;;10.98;100.00;98970.91;5017674;28;20463;-68
2023/10/27 00:17:50;;;;;;;8.30;3.57;;;;;;;10.98;100.00;98975.50;5018002;28;20511;-68
2023/10/27 00:20:16;;;;;;;5.13;2.37;;;;;;;10.98;100.00;98975.50;5018167;28;20538;-68
2023/10/27 00:22:43;;;;;;;5.10;2.30;;;;;;;10.99;100.00;98983.31;5018113;28;20950;-68
2023/10/27 00:25:10;;;;;;;7.47;3.80;;;;;;;10.98;100.00;98981.75;5018605;28;20488;-68
2023/10/27 00:27:38;;;;;;;4.53;2.00;;;;;;;11.00;100.00;98973.25;5018586;28;20443;-68
2023/10/27 00:30:06;;;;;;;4.80;1.93;;;;;;;11.04;100.00;98976.84;5017852;28;20488;-68
2023/10/27 00:32:33;;;;;;;7.13;3.03;;;;;;;11.02;100.00;98976.41;5017550;28;20443;-68
2023/10/27 00:34:59;;;;;;;9.57;3.77;;;;;;;11.06;100.00;98964.53;5017684;28;20492;-68
2023/10/27 00:37:26;;;;;;;4.20;2.10;;;;;;;11.07;100.00;98962.63;5017128;28;20440;-68
2023/10/27 00:39:52;;;;;;;9.03;3.10;;;;;;;11.10;100.00;98954.59;5017162;28;20527;-68
2023/10/27 00:42:19;;;;;;;4.97;1.70;;;;;;;11.13;100.00;98950.41;5017227;28;20439;-68
2023/10/27 00:44:47;;;;;;;6.07;2.47;;;;;;;11.14;100.00;98946.56;5017566;28;21001;-68
2023/10/27 00:47:14;;;;;;;4.93;2.30;;;;;;;11.16;100.00;98948.94;5017193;28;20519;-68
2023/10/27 00:49:40;;;;;;;5.33;2.47;;;;;;;11.17;100.00;98942.38;5017673;28;20483;-68
2023/10/27 00:52:07;;;;;;;6.00;3.23;;;;;;;11.17;100.00;98935.03;5017336;28;20478;-68
2023/10/27 00:54:36;;;;;;;7.23;2.13;;;;;;;11.19;100.00;98945.53;5016754;28;20468;-68
2023/10/27 00:57:03;;;;;;;5.37;1.80;;;;;;;11.18;100.00;98935.81;5016067;28;20448;-68
2023/10/27 00:59:30;;;;;;;5.60;2.00;;;;;;;11.14;100.00;98941.13;5015028;28;20440;-69
2023/10/27 01:01:58;;;;;;;6.00;2.33;;;;;;;11.15;100.00;98931.09;5016108;28;20476;-68
2023/10/27 01:04:25;;;;;;;6.63;3.00;;;;;;;11.17;100.00;98929.63;5016735;28;20546;-69
2023/10/27 01:06:53;;;;;;;6.97;2.63;;;;;;;11.14;100.00;98926.81;5016072;28;20444;-69
2023/10/27 01:09:20;;;;;;;5.80;2.30;;;;;;;11.14;100.00;98927.59;5016459;28;20448;-69
2023/10/27 01:11:47;;;;;;;6.03;2.73;;;;;;;11.14;100.00;98929.50;5018459;28;20855;-68
2023/10/27 01:14:13;;;;;;;10.20;3.47;;;;;;;11.11;100.00;98922.84;5018413;28;20872;-68
2023/10/27 01:16:40;;;;;;;7.93;3.17;;;;;;;11.10;100.00;98929.41;5018695;28;20474;-68
2023/10/27 01:19:08;;;;;;;10.17;2.97;;;;;;;11.13;100.00;98933.38;5018927;28;20448;-68
2023/10/27 01:21:34;;;;;;;8.67;3.00;;;;;;;11.10;100.00;98926.69;5018762;28;20524;-68
2023/10/27 01:24:04;;;;;;;7.80;2.17;;;;;;;11.10;100.00;98924.00;5018337;28;20462;-69
2023/10/27 01:26:31;;;;;;;7.07;3.23;;;;;;;11.11;100.00;98925.56;5016701;28;20450;-68
2023/10/27 01:28:57;;;;;;;6.43;2.50;;;;;;;11.05;100.00;98922.31;5016834;28;20436;-68
2023/10/27 01:31:24;;;;;;;7.63;2.20;;;;;;;11.03;100.00;98921.09;5016984;28;20510;-68
2023/10/27 01:33:51;;;;;;;7.73;2.93;;;;;;;11.04;100.00;98915.31;5016975;28;20543;-68
2023/10/27 01:36:17;;;;;;;6.80;2.53;;;;;;;11.06;100.00;98912.25;5015941;28;20527;-68
2023/10/27 01:38:44;;;;;;;5.30;2.33;;;;;;;11.06;100.00;98902.22;5015814;28;20993;-68
2023/10/27 01:41:12;;;;;;;5.30;2.00;;;;;;;11.04;100.00;98901.78;5016601;28;20446;-68
2023/10/27 01:43:38;;;;;;;11.80;2.37;;;;;;;10.99;100.00;98901.25;5016292;28;20447;-68
2023/10/27 01:46:05;;;;;;;5.80;2.47;;;;;;;10.96;100.00;98902.72;5016625;28;20575;-68
2023/10/27 01:48:32;;;;;;;8.00;3.53;;;;;;;10.98;100.00;98899.66;5015941;28;20450;-68
2023/10/27 01:50:59;;;;;;;5.77;2.20;;;;;;;10.99;100.00;98901.25;5016590;28;20484;-68
2023/10/27 01:53:25;;;;;;;5.50;2.40;;;;;;;10.94;100.00;98901.50;5015777;28;20539;-68
2023/10/27 01:55:52;;;;;;;5.03;1.63;;;;;;;10.90;100.00;98903.31;5015872;28;20522;-68
2023/10/27 01:58:20;;;;;;;10.80;2.50;;;;;;;10.91;100.00;98905.66;5015072;28;20531;-68
2023/10/27 02:00:47;;;;;;;6.10;2.87;;;;;;;10.92;100.00;98904.53;5017124;28;20527;-68
2023/10/27 02:03:13;;;;;;;6.57;2.13;;;;;;;10.94;100.00;98896.06;5014600;28;20498;-67
2023/10/27 02:05:44;;;;;;;4.90;2.10;;;;;;;10.96;100.00;98897.28;5015395;28;20541;-69
2023/10/27 02:08:11;;;;;;;7.17;2.70;;;;;;;10.98;100.00;98889.63;5015675;28;20423;-69
2023/10/27 02:10:37;;;;;;;4.53;1.70;;;;;;;11.03;100.00;98891.28;5015017;28;20519;-69
2023/10/27 02:13:04;;;;;;;8.60;2.47;;;;;;;11.06;100.00;98899.50;5015767;28;20475;-69
2023/10/27 02:15:33;;;;;;;8.43;3.07;;;;;;;11.09;100.00;98895.31;5015564;28;20488;-69
2023/10/27 02:18:00;;;;;;;6.97;2.33;;;;;;;11.09;100.00;98898.03;5015287;28;20884;-69
2023/10/27 02:20:29;;;;;;;6.57;2.60;;;;;;;11.10;100.00;98896.91;5014649;28;20508;-69
2023/10/27 02:22:56;;;;;;;5.63;2.30;;;;;;;11.03;100.00;98897.50;5015427;28;20455;-69
2023/10/27 02:25:23;;;;;;;9.07;3.93;;;;;;;11.02;100.00;98890.50;5015447;28;20527;-69
2023/10/27 02:27:49;;;;;;;5.47;2.30;;;;;;;11.04;100.00;98895.56;5016269;28;20487;-69
2023/10/27 02:30:16;;;;;;;5.40;1.83;;;;;;;11.08;100.00;98899.19;5015332;28;20921;-69
2023/10/27 02:32:44;;;;;;;9.23;3.20;;;;;;;11.13;100.00;98896.22;5015672;28;20514;-69
2023/10/27 02:35:10;;;;;;;9.47;3.30;;;;;;;11.10;100.00;98896.91;5015398;28;20463;-69
2023/10/27 02:37:37;;;;;;;10.70;3.00;;;;;;;11.10;100.00;98899.59;5015713;28;20547;-69
2023/10/27 02:40:04;;;;;;;7.63;1.77;;;;;;;11.07;100.00;98894.91;5015562;28;20539;-69
2023/10/27 02:42:31;;;;;;;4.80;2.27;;;;;;;11.05;100.00;98905.28;5015064;28;20491;-69
2023/10/27 02:44:58;;;;;;;4.47;1.67;;;;;;;11.04;100.00;98909.13;5014481;28;20496;-69
2023/10/27 02:47:24;;;;;;;7.57;3.00;;;;;;;11.01;100.00;98909.81;5015351;28;20440;-69
2023/10/27 02:49:52;;;;;;;5.80;2.23;;;;;;;11.02;100.00;98911.38;5015000;28;20535;-69
2023/10/27 02:52:19;;;;;;;5.97;2.53;;;;;;;10.99;100.00;98910.16;5015367;28;20452;-69
2023/10/27 02:54:45;;;;;;;5.40;2.27;;;;;;;11.00;100.00;98917.16;5015088;28;20462;-69
2023/10/27 02:57:11;;;;;;;8.43;3.23;;;;;;;11.01;100.00;98921.44;5014892;28;20560;-69
2023/10/27 02:59:38;;;;;;;5.57;2.47;;;;;;;10.97;100.00;98925.94;5014191;28;20674;-69
2023/10/27 03:02:05;;;;;;;5.87;2.00;;;;;;;10.96;100.00;98918.19;5015310;28;20448;-69
2023/10/27 03:04:31;;;;;;;7.73;2.17;;;;;;;10.93;100.00;98916.94;5015410;28;20945;-69
2023/10/27 03:06:59;;;;;;;14.47;3.40;;;;;;;10.98;100.00;98921.31;5015484;28;20440;-69
2023/10/27 03:09:26;;;;;;;10.77;2.40;;;;;;;10.94;100.00;98915.81;5016131;28;20466;-70
2023/10/27 03:11:53;;;;;;;7.70;2.93;;;;;;;10.99;100.00;98912.09;5016572;28;20475;-69
2023/10/27 03:14:20;;;;;;;4.77;2.60;;;;;;;10.96;100.00;98913.53;5017443;28;20543;-68
2023/10/27 03:16:46;;;;;;;6.93;2.53;;;;;;;11.01;100.00;98917.94;5017353;28;20466;-69
2023/10/27 03:19:13;;;;;;;6.40;2.10;;;;;;;11.04;100.00;98922.66;5020846;28;20475;-69
2023/10/27 03:21:39;;;;;;;8.83;3.10;;;;;;;11.07;100.00;98919.28;5020050;28;20503;-69
2023/10/27 03:24:08;;;;;;;12.27;1.50;;;;;;;11.09;100.00;98917.78;5022849;28;20563;-69
2023/10/27 03:26:35;;;;;;;8.00;2.53;;;;;;;11.09;100.00;98911.59;5024040;28;20452;-69
2023/10/27 03:29:01;;;;;;;6.33;2.90;;;;;;;11.10;100.00;98907.72;5025605;28;20460;-70
2023/10/27 03:31:28;;;;;;;9.03;3.20;;;;;;;11.10;100.00;98907.72;5024734;28;20482;-70
2023/10/27 03:33:55;;;;;;;6.90;2.60;;;;;;;11.11;100.00;98912.00;5024552;28;20264;-69
2023/10/27 03:36:22;;;;;;;7.60;2.77;;;;;;;11.11;100.00;98909.28;5023418;28;20472;-69
2023/10/27 03:38:49;;;;;;;7.77;3.07;;;;;;;11.09;100.00;98906.94;5024445;28;20452;-69
2023/10/27 03:41:17;;;;;;;8.10;2.47;;;;;;;11.11;100.00;98907.41;5018432;28;20490;-69
2023/10/27 03:43:44;;;;;;;6.80;2.70;;;;;;;11.14;100.00;98907.84;5016647;28;20521;-69
2023/10/27 03:46:10;;;;;;;5.57;2.07;;;;;;;11.16;100.00;98908.28;5016898;28;20523;-69
2023/10/27 03:48:37;;;;;;;9.07;3.70;;;;;;;11.16;100.00;98911.78;5016925;28;20542;-69
2023/10/27 03:51:05;;;;;;;6.53;2.20;;;;;;;11.16;100.00;98911.00;5017385;28;20566;-69
2023/10/27 03:53:31;;;;;;;9.47;2.50;;;;;;;11.17;100.00;98896.31;5016599;28;20490;-69
2023/10/27 03:55:58;;;;;;;9.20;3.43;;;;;;;11.19;100.00;98902.94;5016564;28;20454;-69
2023/10/27 03:58:26;;;;;;;6.37;2.80;;;;;;;11.17;100.00;98902.50;5016145;28;20479;-69
2023/10/27 04:00:53;;;;;;;5.93;2.20;;;;;;;11.16;100.00;98902.88;5016500;28;20941;-69
2023/10/27 04:03:19;;;;;;;6.70;2.73;;;;;;;11.12;100.00;98900.06;5016394;28;20447;-69
2023/10/27 04:05:46;;;;;;;9.27;2.97;;;;;;;11.10;100.00;98897.69;5016245;28;20514;-69
2023/10/27 04:08:13;;;;;;;6.40;2.10;;;;;;;11.07;100.00;98895.69;5016644;28;20942;-69
2023/10/27 04:10:39;;;;;;;6.43;2.50;;;;;;;11.06;100.00;98893.28;5020454;28;20480;-69
2023/10/27 04:13:07;;;;;;;8.67;2.60;;;;;;;11.02;100.00;98892.41;5020328;28;20531;-69
2023/10/27 04:15:35;;;;;;;10.77;3.00;;;;;;;10.99;100.00;98887.69;5018226;28;20459;-69
2023/10/27 04:18:02;;;;;;;7.00;3.00;;;;;;;10.98;100.00;98891.53;5016453;28;20455;-69
2023/10/27 04:20:29;;;;;;;6.70;2.70;;;;;;;11.00;100.00;98889.28;5031133;23;20496;-66
2023/10/27 04:22:56;;;;;;;5.90;2.00;;;;;;;10.97;100.00;98887.25;5016250;28;20456;-66
2023/10/27 04:25:24;;;;;;;8.87;2.73;;;;;;;10.98;100.00;98894.22;5015666;28;20492;-66
2023/10/27 04:27:50;;;;;;;6.97;2.63;;;;;;;10.99;100.00;98891.19;5016263;28;20522;-65
2023/10/27 04:30:17;;;;;;;4.70;2.30;;;;;;;11.00;100.00;98891.97;5015497;28;20487;-65
2023/10/27 04:32:46;;;;;;;8.23;3.27;;;;;;;10.97;100.00;98888.03;5015476;28;20795;-65
2023/10/27 04:35:13;;;;;;;10.50;2.93;;;;;;;10.99;100.00;98890.41;5014677;28;20463;-65
2023/10/27 04:37:40;;;;;;;14.60;2.43;;;;;;;11.01;100.00;98888.13;5015816;28;20444;-65
2023/10/27 04:40:08;;;;;;;5.77;2.20;;;;;;;11.02;100.00;98887.00;5015817;28;20448;-65
2023/10/27 04:42:34;;;;;;;7.50;2.63;;;;;;;11.04;100.00;98876.59;5015331;28;20440;-66
2023/10/27 04:45:02;;;;;;;12.70;3.17;;;;;;;11.06;100.00;98882.47;5015890;28;20463;-66
2023/10/27 04:47:28;;;;;;;8.83;3.17;;;;;;;11.06;100.00;98882.47;5015571;28;20540;-66
2023/10/27 04:49:57;;;;;;;7.43;2.40;;;;;;;11.07;100.00;98875.94;5015516;28;20531;-66
2023/10/27 04:52:23;;;;;;;7.10;2.80;;;;;;;11.06;100.00;98885.16;5015797;28;20557;-66
2023/10/27 04:54:50;;;;;;;10.07;2.93;;;;;;;11.00;100.00;98875.72;5015074;28;21003;-66
2023/10/27 04:57:16;;;;;;;6.60;2.57;;;;;;;11.04;100.00;98876.59;5015376;28;20530;-66
2023/10/27 04:59:43;;;;;;;5.40;2.67;;;;;;;11.04;100.00;98873.91;5015363;28;20494;-66
2023/10/27 05:02:10;;;;;;;7.60;3.13;;;;;;;11.04;100.00;98871.19;5014968;28;21009;-66
2023/10/27 05:04:36;;;;;;;6.67;3.20;;;;;;;11.04;100.00;98879.31;5015127;28;20460;-66
2023/10/27 05:07:05;;;;;;;5.33;2.03;;;;;;;11.04;100.00;98871.97;5015240;28;20448;-66
2023/10/27 05:09:32;;;;;;;8.83;3.20;;;;;;;11.03;100.00;98875.81;5015491;28;20464;-66
2023/10/27 05:11:59;;;;;;;5.90;3.17;;;;;;;11.00;100.00;98881.94;5015053;28;20484;-65
2023/10/27 05:14:25;;;;;;;10.43;2.57;;;;;;;11.00;100.00;98876.50;5014984;28;20520;-66
2023/10/27 05:16:52;;;;;;;8.37;2.87;;;;;;;10.98;100.00;98869.84;5014675;28;21005;-66
2023/10/27 05:19:18;;;;;;;5.40;2.20;;;;;;;10.96;100.00;98869.41;5015424;28;20448;-66
2023/10/27 05:21:45;;;;;;;5.63;2.27;;;;;;;10.96;100.00;98872.13;5014452;28;20539;-66
2023/10/27 05:24:13;;;;;;;7.93;3.00;;;;;;;10.90;100.00;98865.41;5014833;28;20544;-65
2023/10/27 05:26:39;;;;;;;6.23;2.80;;;;;;;10.86;100.00;98863.38;5014878;28;21029;-65
2023/10/27 05:29:06;;;;;;;6.77;2.77;;;;;;;10.82;100.00;98867.91;5015143;28;20471;-66
2023/10/27 05:31:34;;;;;;;7.30;2.93;;;;;;;10.79;100.00;98865.88;5014662;28;20488;-66
2023/10/27 05:34:01;;;;;;;4.97;2.20;;;;;;;10.80;100.00;98875.59;5014721;28;20499;-66
2023/10/27 05:36:28;;;;;;;6.47;2.60;;;;;;;10.79;100.00;98874.00;5014712;28;20523;-66
2023/10/27 05:38:54;;;;;;;7.20;2.53;;;;;;;10.75;100.00;98875.81;5014599;28;21008;-66
2023/10/27 05:41:22;;;;;;;8.10;3.57;;;;;;;10.77;100.00;98873.56;5014904;28;20527;-66
2023/10/27 05:43:50;;;;;;;8.40;1.93;;;;;;;10.81;100.00;98874.44;5014792;28;20846;-66
2023/10/27 05:46:18;;;;;;;8.63;3.40;;;;;;;10.80;100.00;98872.06;5014237;28;20455;-65
2023/10/27 05:48:45;;;;;;;6.53;2.67;;;;;;;10.83;100.00;98868.69;5014461;28;20483;-65
2023/10/27 05:51:11;;;;;;;6.97;2.77;;;;;;;10.90;100.00;98878.94;5014447;28;20538;-65
2023/10/27 05:53:38;;;;;;;5.50;2.60;;;;;;;10.91;100.00;98877.78;5014260;28;20984;-65
2023/10/27 05:56:05;;;;;;;9.27;2.23;;;;;;;10.91;100.00;98883.22;5014044;28;20440;-65
2023/10/27 05:58:34;;;;;;;5.63;2.53;;;;;;;10.93;100.00;98875.53;5014262;28;21015;-65
2023/10/27 06:01:01;;;;;;;5.43;2.67;;;;;;;10.90;100.00;98876.22;5014927;28;20473;-66
2023/10/27 06:03:27;;;;;;;5.90;2.50;;;;;;;10.91;100.00;98873.16;5014411;28;20910;-66
2023/10/27 06:05:54;;;;;;;4.90;2.00;;;;;;;10.91;100.00;98873.16;5014447;28;20444;-66
2023/10/27 06:08:21;;;;;;;5.50;3.37;;;;;;;10.94;100.00;98872.47;5013816;28;20796;-67
2023/10/27 06:10:47;;;;;;;8.43;3.30;;;;;;;10.95;100.00;98878.69;5014059;28;20444;-66
2023/10/27 06:13:14;;;;;;;9.00;2.77;;;;;;;10.96;100.00;98881.03;5014374;28;20527;-68
2023/10/27 06:15:42;;;;;;;4.73;2.87;;;;;;;11.00;100.00;98886.56;5013620;28;20911;-67
2023/10/27 06:18:09;;;;;;;7.77;3.87;;;;;;;11.00;100.00;98881.94;5014355;28;20440;-67
2023/10/27 06:20:35;;;;;;;4.73;1.97;;;;;;;10.98;100.00;98870.66;5013551;28;20448;-65
2023/10/27 06:23:02;;;;;;;6.13;2.87;;;;;;;10.98;100.00;98873.38;5013985;28;20443;-66
2023/10/27 06:25:28;;;;;;;5.47;2.90;;;;;;;11.01;100.00;98874.59;5014053;28;20468;-66
2023/10/27 06:27:55;;;;;;;8.17;2.40;;;;;;;11.03;100.00;98881.25;5013933;28;20996;-67
2023/10/27 06:30:23;;;;;;;9.57;3.07;;;;;;;11.06;100.00;98879.75;5014180;28;20531;-66
2023/10/27 06:32:51;;;;;;;5.70;2.90;;;;;;;11.07;100.00;98884.84;5013692;28;20523;-66
2023/10/27 06:35:17;;;;;;;5.20;2.23;;;;;;;11.03;100.00;98885.88;5013806;28;20985;-66
2023/10/27 06:37:44;;;;;;;12.60;3.80;;;;;;;11.02;100.00;98887.81;5013741;28;20440;-66
2023/10/27 06:40:12;;;;;;;8.47;2.33;;;;;;;11.00;100.00;98895.47;5014161;28;20503;-66
2023/10/27 06:42:38;;;;;;;5.80;2.47;;;;;;;11.00;100.00;98906.31;5013674;28;20440;-66
2023/10/27 06:45:06;;;;;;;9.50;3.97;;;;;;;11.00;100.00;98909.03;5013650;28;20535;-67
2023/10/27 06:47:32;;;;;;;5.80;1.87;;;;;;;11.01;100.00;98899.75;5013721;28;20506;-67
2023/10/27 06:50:02;;;;;;;5.03;2.13;;;;;;;11.01;100.00;98912.50;5013686;28;20451;-67
2023/10/27 06:52:29;;;;;;;6.63;2.30;;;;;;;10.99;100.00;98917.50;5013505;28;20492;-67
2023/10/27 06:54:56;;;;;;;8.87;4.20;;;;;;;10.94;100.00;98915.03;5013504;28;20464;-67
2023/10/27 06:57:22;;;;;;;5.10;2.07;;;;;;;10.94;100.00;98909.63;5013717;28;20440;-66
2023/10/27 06:59:49;;;;;;;7.70;2.07;;;;;;;10.90;100.00;98925.78;5017210;28;20894;-66
2023/10/27 07:02:15;;;;;;;7.33;3.00;;;;;;;10.88;100.00;98924.53;5017316;28;20937;-66
2023/10/27 07:04:42;;;;;;;7.33;2.33;;;;;;;10.91;100.00;98921.13;5017403;28;20490;-66
2023/10/27 07:07:11;;;;;;;7.87;3.10;;;;;;;10.93;100.00;98919.66;5017286;28;20909;-66
2023/10/27 07:09:38;;;;;;;9.10;2.17;;;;;;;10.95;100.00;98924.75;5017410;28;20455;-66
2023/10/27 07:12:05;;;;;;;6.87;3.27;;;;;;;10.95;100.00;98925.53;5017799;28;20487;-66
2023/10/27 07:14:32;;;;;;;4.03;2.53;;;;;;;10.97;100.00;98928.66;5017194;28;20466;-66
2023/10/27 07:16:59;;;;;;;5.20;2.20;;;;;;;11.00;100.00;98924.50;5017232;28;20495;-68
2023/10/27 07:19:26;;;;;;;5.33;2.33;;;;;;;11.00;100.00;98929.91;5017238;28;20447;-66
2023/10/27 07:21:53;;;;;;;7.57;2.80;;;;;;;11.00;100.00;98936.13;5016747;28;20885;-66
2023/10/27 07:24:21;;;;;;;5.80;2.60;;;;;;;11.05;100.00;98933.16;5017289;28;20466;-66
2023/10/27 07:26:48;;;;;;;7.33;3.10;;;;;;;11.05;100.00;98937.78;5017153;28;20443;-67
2023/10/27 07:29:15;;;;;;;7.50;3.50;;;;;;;11.05;100.00;98927.72;5017467;28;20448;-68
2023/10/27 07:31:42;;;;;;;5.30;2.33;;;;;;;11.05;100.00;98933.16;5016952;28;20578;-68
2023/10/27 07:34:08;;;;;;;8.97;2.80;;;;;;;11.07;100.00;98924.69;5017151;28;20980;-67
2023/10/27 07:36:35;;;;;;;5.50;2.20;;;;;;;11.06;100.00;98933.94;5016923;28;20527;-67
2023/10/27 07:39:02;;;;;;;5.87;2.60;;;;;;;11.08;100.00;98931.69;5016550;28;20933;-67
2023/10/27 07:41:31;;;;;;;7.13;3.00;;;;;;;11.10;100.00;98929.41;5016562;28;20531;-66
2023/10/27 07:43:57;;;;;;;6.17;2.60;;;;;;;11.05;100.00;98921.53;5017087;28;20463;-66
2023/10/27 07:46:24;;;;;;;6.43;2.40;;;;;;;11.06;100.00;98923.09;5016362;28;21040;-67
2023/10/27 07:48:50;;;;;;;9.03;2.70;;;;;;;11.08;100.00;98920.84;5016601;28;20454;-67
2023/10/27 07:51:17;;;;;;;6.30;2.87;;;;;;;11.05;100.00;98914.19;5016560;28;20440;-71
2023/10/27 07:53:44;;;;;;;5.50;2.97;;;;;;;11.06;100.00;98912.25;5016457;28;20444;-67
2023/10/27 07:56:11;;;;;;;8.97;2.93;;;;;;;11.07;100.00;98920.06;5016360;28;20797;-65
2023/10/27 07:58:39;;;;;;;9.07;3.33;;;;;;;11.04;100.00;98925.38;5016187;28;20530;-65
2023/10/27 08:01:06;;;;;;;6.60;2.83;;;;;;;11.06;100.00;98923.09;5016815;28;20440;-65
2023/10/27 08:03:33;;;;;;;5.90;2.80;;;;;;;11.00;100.00;98921.78;5016639;28;20444;-65
2023/10/27 08:06:01;;;;;;;8.83;3.00;;;;;;;10.99;100.00;98923.69;5016395;28;20451;-65
2023/10/27 08:08:27;;;;;;;5.47;2.10;;;;;;;11.02;100.00;98916.78;5016195;28;20451;-65
2023/10/27 08:10:54;;;;;;;6.23;2.90;;;;;;;11.00;100.00;98924.50;5016611;28;20502;-65
2023/10/27 08:13:21;;;;;;;7.17;2.60;;;;;;;11.02;100.00;98914.09;5016455;28;20574;-65
2023/10/27 08:15:49;;;;;;;6.80;2.80;;;;;;;11.01;100.00;98915.22;5016092;28;20559;-65
2023/10/27 08:18:16;;;;;;;5.97;2.50;;;;;;;11.02;100.00;98905.97;5016066;28;20861;-65
2023/10/27 08:20:43;;;;;;;13.23;2.97;;;;;;;11.04;100.00;98906.41;5015759;28;20932;-65
2023/10/27 08:23:10;;;;;;;8.83;3.40;;;;;;;11.04;100.00;98904.50;5016392;28;20511;-65
2023/10/27 08:25:37;;;;;;;5.27;2.27;;;;;;;11.06;100.00;98907.63;5015957;28;20468;-65
2023/10/27 08:28:04;;;;;;;5.97;2.70;;;;;;;11.07;100.00;98897.59;5015999;28;20444;-65
2023/10/27 08:30:31;;;;;;;7.53;2.47;;;;;;;11.07;100.00;98901.09;5015879;28;20475;-65
2023/10/27 08:32:59;;;;;;;12.03;3.80;;;;;;;11.12;100.00;98902.78;5015750;28;20479;-65
2023/10/27 08:35:26;;;;;;;10.23;3.70;;;;;;;11.11;100.00;98904.69;5015762;28;20460;-68
2023/10/27 08:37:52;;;;;;;6.57;2.67;;;;;;;11.17;100.00;98907.16;5015727;28;20447;-65
2023/10/27 08:40:19;;;;;;;4.53;1.93;;;;;;;11.19;100.00;98905.66;5016074;28;20856;-66
2023/10/27 08:42:49;;;;;;;7.53;3.17;;;;;;;11.19;100.00;98911.06;5015290;28;20922;-66
2023/10/27 08:45:15;;;;;;;9.33;2.70;;;;;;;11.22;100.00;98910.38;5015582;28;20542;-66
2023/10/27 08:47:42;;;;;;;5.53;2.47;;;;;;;11.27;100.00;98917.47;5015587;28;20803;-66
2023/10/27 08:50:11;;;;;;;7.87;3.07;;;;;;;11.28;100.00;98919.84;5015668;28;21036;-66
2023/10/27 08:52:39;;;;;;;5.97;2.70;;;;;;;11.26;100.00;98926.75;5015126;28;20997;-66
2023/10/27 08:55:08;;;;;;;10.87;3.60;;;;;;;11.27;100.00;98918.25;5015456;28;20464;-66
2023/10/27 08:57:35;;;;;;;7.50;3.23;;;;;;;11.31;100.00;98921.06;5015397;28;20454;-66
2023/10/27 09:00:03;;;;;;;7.63;3.17;;;;;;;11.33;100.00;98907.94;5015682;28;20443;-66
2023/10/27 09:02:30;;;;;;;6.60;3.20;;;;;;;11.34;100.00;98917.69;5015542;28;20437;-66
2023/10/27 09:05:05;;;;;;;6.57;3.10;;;;;;;11.36;100.00;98916.19;5015781;28;20464;-66
2023/10/27 09:07:35;;;;;;;4.43;1.87;;;;;;;11.38;100.00;98913.16;5014895;28;20952;-66
2023/10/27 09:10:03;;;;;;;7.43;2.77;;;;;;;11.39;100.00;98912.00;5015446;28;20468;-66
2023/10/27 09:12:31;;;;;;;5.40;2.57;;;;;;;11.44;100.00;98906.31;5015010;28;20483;-66
2023/10/27 09:15:04;;;;;;;11.00;4.10;;;;;;;11.47;100.00;98905.63;5015027;28;20467;-66
2023/10/27 09:17:30;;;;;;;4.57;1.90;;;;;;;11.51;100.00;98905.69;5015379;28;20523;-66
2023/10/27 09:20:05;;;;;;;14.10;3.90;;;;;;;11.54;100.00;98905.81;5015226;28;20522;-66
2023/10/27 09:22:31;;;;;;;11.73;3.30;;;;;;;11.58;100.00;98909.38;5014596;28;20503;-66
2023/10/27 09:25:17;;;;;;;7.00;3.20;;;;;;;11.57;100.00;98904.31;5014761;28;20499;-67
2023/10/27 09:27:44;;;;;;;8.50;2.50;;;;;;;11.60;100.00;98904.44;5014826;28;20928;-68
2023/10/27 09:30:13;;;;;;;8.23;3.33;;;;;;;11.57;100.00;98904.31;5015195;28;20437;-65
2023/10/27 09:32:42;;;;;;;8.40;3.57;;;;;;;11.56;100.00;98913.59;5014801;28;20511;-65
2023/10/27 09:35:10;;;;;;;7.00;3.40;;;;;;;11.50;100.00;98912.28;5014414;28;20533;-65
2023/10/27 09:37:38;;;;;;;9.80;2.80;;;;;;;11.48;100.00;98918.06;5014734;28;20543;-65
2023/10/27 09:40:08;;;;;;;6.77;2.87;;;;;;;11.50;100.00;98914.97;5014332;28;20451;-65
2023/10/27 09:42:39;;;;;;;8.83;3.03;;;;;;;11.46;100.00;98911.38;5014978;28;20432;-65
2023/10/27 09:45:11;;;;;;;7.40;3.97;;;;;;;11.46;100.00;98912.16;5014144;28;20995;-65
2023/10/27 09:47:45;;;;;;;6.40;3.20;;;;;;;11.48;100.00;98914.56;5014118;28;20839;-65
2023/10/27 09:50:14;;;;;;;5.57;2.83;;;;;;;11.45;100.00;98916.03;5014564;28;20479;-65
2023/10/27 09:52:44;;;;;;;7.63;3.07;;;;;;;11.45;100.00;98915.25;5014001;28;20482;-66
2023/10/27 09:55:13;;;;;;;6.97;2.50;;;;;;;11.50;100.00;98925.81;5014317;28;20518;-69
2023/10/27 09:57:44;;;;;;;12.00;3.10;;;;;;;11.52;100.00;98918.16;5014730;28;20436;-65
2023/10/27 10:00:13;;;;;;;7.30;1.70;;;;;;;11.50;100.00;98920.41;5014504;28;20464;-65
2023/10/27 10:02:42;;;;;;;6.63;2.90;;;;;;;11.48;100.00;98923.47;5013910;28;20494;-65
2023/10/27 10:05:11;;;;;;;9.70;3.13;;;;;;;11.47;100.00;98918.41;5014101;28;20460;-65
2023/10/27 10:07:41;;;;;;;7.10;2.13;;;;;;;11.47;100.00;98926.53;5014196;28;20503;-65
2023/10/27 10:10:22;;;;;;;6.13;2.80;;;;;;;11.49;100.00;98910.69;5013803;28;20448;-65
2023/10/27 10:13:01;;;;;;;5.40;2.07;;;;;;;11.49;100.00;98913.41;5013777;28;20468;-65
2023/10/27 10:15:29;;;;;;;10.40;2.90;;;;;;;11.51;100.00;98903.00;5014270;28;20863;-65
2023/10/27 10:17:56;;;;;;;7.90;2.90;;;;;;;11.53;100.00;98900.72;5014009;28;20432;-65
2023/10/27 10:20:57;;;;;;;9.67;2.80;;;;;;;11.53;100.00;98906.94;5028915;23;20640;-72
2023/10/27 10:23:25;;;;;;;7.20;2.43;;;;;;;11.53;100.00;98906.16;5013575;28;20495;-69
2023/10/27 10:25:53;;;;;;;12.70;3.23;;;;;;;11.50;100.00;98894.06;5014124;28;20552;-71
2023/10/27 10:28:24;;;;;;;7.93;2.90;;;;;;;11.53;100.00;98893.38;5013596;28;21021;-73
2023/10/27 10:31:27;;;;;;;8.57;3.33;;;;;;;11.57;100.00;98898.91;5013753;28;20444;-73
2023/10/27 10:34:11;;;;;;;5.90;2.63;;;;;;;11.59;100.00;98893.91;5013086;28;20493;-72
2023/10/27 10:36:37;;;;;;;6.97;3.00;;;;;;;11.61;100.00;98889.72;5013707;28;20498;-75
2023/10/27 10:39:05;;;;;;;6.43;2.93;;;;;;;11.68;100.00;98893.75;5014355;28;20450;-74
2023/10/27 10:42:03;;;;;;;7.33;2.83;;;;;;;11.69;100.00;98887.19;5014038;28;20447;-74
2023/10/27 10:44:32;;;;;;;6.37;2.57;;;;;;;11.68;100.00;98888.31;5013824;28;20490;-74
2023/10/27 10:47:05;;;;;;;5.33;2.23;;;;;;;11.70;100.00;98894.97;5013735;28;20451;-73
2023/10/27 10:49:33;;;;;;;11.77;3.33;;;;;;;11.67;100.00;98887.53;5014280;28;20483;-70
2023/10/27 10:52:01;;;;;;;8.20;3.10;;;;;;;11.69;100.00;98898.81;5013745;28;20464;-74
2023/10/27 10:54:28;;;;;;;6.00;2.90;;;;;;;11.72;100.00;98892.69;5013187;28;20911;-74
2023/10/27 10:57:02;;;;;;;5.43;2.17;;;;;;;11.74;100.00;98893.13;5013613;28;20450;-74
2023/10/27 10:59:30;;;;;;;4.87;1.73;;;;;;;11.78;100.00;98896.72;5013975;28;20446;-72
2023/10/27 11:01:58;;;;;;;6.67;2.70;;;;;;;11.78;100.00;98895.94;5013577;28;20446;-73
2023/10/27 11:04:32;;;;;;;8.50;3.17;;;;;;;11.74;100.00;98892.34;5013769;28;20518;-72
2023/10/27 11:07:00;;;;;;;5.20;2.87;;;;;;;11.74;100.00;98895.84;5013946;28;20439;-73
2023/10/27 11:09:27;;;;;;;13.07;2.83;;;;;;;11.71;100.00;98895.75;5013220;28;20459;-72
2023/10/27 11:11:55;;;;;;;6.80;2.77;;;;;;;11.72;100.00;98895.41;5013842;28;20436;-72
2023/10/27 11:14:22;;;;;;;5.40;2.40;;;;;;;11.71;100.00;98891.13;5013364;28;20855;-73
2023/10/27 11:16:58;;;;;;;4.87;2.10;;;;;;;11.68;100.00;98891.81;5013763;28;20475;-73
2023/10/27 11:19:25;;;;;;;7.23;3.10;;;;;;;11.64;100.00;98899.06;5013925;28;20517;-68
2023/10/27 11:21:53;;;;;;;7.07;3.30;;;;;;;11.62;100.00;98896.72;5013065;28;20454;-69
2023/10/27 11:24:20;;;;;;;10.23;3.17;;;;;;;11.63;100.00;98902.91;5013591;28;20456;-73
2023/10/27 11:26:46;;;;;;;10.00;2.83;;;;;;;11.65;100.00;98895.25;5013156;28;20444;-72